X

Important NEWS



New Hub Active

Miami is our new hub! Old members can request transfer via hr@dlxairways.net

Thank you very much and have nice flight.


Deluxe Airways.

X

Tours



Hello again, we created one nice test tour for all pilots to attend. also this is ment to be testing of our tour system

Available Tours

If you find some issues please inform us.

Thank you very much and have nice flight.


Deluxe Airways.

 METAR AND TAF INFORMATION
ArrayMETAR FOR LQSA
15264870 5 LQSA 250630Z 14004KT 4000 BR FEW008 OVC010 17/15 Q1021 BECMG 9999 NSW SCT050 LQSA 2019-08-25T06:30:00Z 43.82 18.32 17.0 15.0 140 4 2.49 30.147638 BR IFR METAR 511.0 LQSA 250600Z 13004KT 100V170 4000 BR SCT006 BKN009 17/16 Q1021 BECMG 9999 NSW SCT050 LQSA 2019-08-25T06:00:00Z 43.82 18.32 17.0 16.0 130 4 2.49 30.147638 BR IFR METAR 511.0 LQSA 250530Z 13004KT 090V160 4000 BR SCT006 OVC010 16/16 Q1021 BECMG 9999 NSW SCT050 LQSA 2019-08-25T05:30:00Z 43.82 18.32 16.0 16.0 130 4 2.49 30.147638 BR IFR SPECI 511.0 LQSA 250500Z 12003KT 080V150 4000 BR SCT006 OVC010 16/16 Q1021 NOSIG LQSA 2019-08-25T05:00:00Z 43.82 18.32 16.0 16.0 120 3 2.49 30.147638 TRUE BR IFR METAR 511.0

 AIRPORT MAP

 RUNWAY INFORMATION
Runway 12 Runway length 8666 ft Runway width 150 ft
Runway elevation 1643 ft Runway displaced threshold 333 ft Runway heading 117
Runway 30 Runway length 8666 ft Runway width 150 ft
Runway elevation 1690 ft Runway displaced threshold 1666 ft Runway heading 297

 AIRPORT FREQUENCIES
Type APP Name APP Frequency 136.45 MHZ
Type GCA Name GCA Frequency 119.4 MHZ
Type GND Name GND Frequency 121.9 MHZ
Type TWR Name TWR Frequency 118.25 MHZ

 AIRPORT NEAR NAVIGATION AIDS
Type NDB Name Sarajevo Frequency 436 KHZ
Type VOR-DME Name Sarajevo Frequency 116700 KHZ
Type NDB Name Kobiljaca Frequency 358 KHZ
Type VORTAC Name Sarajevo Frequency 108850 KHZ



Powered by Virtual Airlines Manager [v2.6.2]

Template code change by DeluxeAir